Time;durP1;ratioP1;P1;durP2;ratioP2;P2;SDS_P1;SDS_P2;PMS_P1;PMS_P2;Temp;Humidity;BMP_temperature;BMP_pressure;BME280_temperature;BME280_humidity;BME280_pressure;Samples;Min_cycle;Max_cycle;Signal;HPM_P1;HPM_P2
2023/07/02 00:01:12;;;;;;;20.80;14.25;;;17.40;99.90;;;;;;5053474;28;20172;-59
2023/07/02 00:03:38;;;;;;;22.77;15.45;;;17.20;99.90;;;;;;5053421;28;20171;-59
2023/07/02 00:06:05;;;;;;;22.10;14.63;;;17.40;99.90;;;;;;5053372;28;20289;-59
2023/07/02 00:08:30;;;;;;;23.83;15.70;;;17.40;99.90;;;;;;5053255;28;20244;-59
2023/07/02 00:10:56;;;;;;;25.85;15.93;;;17.40;99.90;;;;;;5053191;28;20175;-59
2023/07/02 00:13:22;;;;;;;23.95;15.90;;;17.40;99.90;;;;;;5052786;28;20332;-59
2023/07/02 00:15:47;;;;;;;22.85;14.27;;;17.50;99.90;;;;;;5053553;28;20171;-59
2023/07/02 00:18:16;;;;;;;22.77;15.70;;;17.40;99.90;;;;;;5053129;28;20305;-59
2023/07/02 00:20:43;;;;;;;25.25;14.90;;;17.40;99.90;;;;;;5053197;28;20175;-59
2023/07/02 00:23:09;;;;;;;22.50;15.25;;;17.50;99.90;;;;;;5053116;28;20175;-59
2023/07/02 00:25:36;;;;;;;26.23;16.90;;;17.50;99.90;;;;;;5053044;28;20175;-59
2023/07/02 00:28:02;;;;;;;25.85;16.55;;;17.50;99.90;;;;;;5053254;28;20180;-59
2023/07/02 00:30:27;;;;;;;25.67;16.30;;;17.40;99.90;;;;;;5053015;28;20662;-59
2023/07/02 00:32:53;;;;;;;26.40;16.30;;;17.50;99.90;;;;;;5053155;28;20178;-59
2023/07/02 00:35:19;;;;;;;27.30;16.27;;;17.50;99.90;;;;;;5053073;28;20179;-59
2023/07/02 00:37:44;;;;;;;27.67;16.83;;;17.40;99.90;;;;;;5053060;28;20225;-59
2023/07/02 00:40:10;;;;;;;23.10;16.80;;;17.40;99.90;;;;;;5052892;28;20628;-59
2023/07/02 00:42:36;;;;;;;24.55;15.50;;;17.40;99.90;;;;;;5035513;28;20172;-59
2023/07/02 00:45:02;;;;;;;24.88;17.25;;;17.40;99.90;;;;;;5053037;28;20171;-60
2023/07/02 00:47:33;;;;;;;25.02;16.70;;;17.40;99.90;;;;;;5053013;28;20270;-59
2023/07/02 00:49:59;;;;;;;25.75;17.10;;;17.50;99.90;;;;;;5052889;28;20702;-59
2023/07/02 00:52:25;;;;;;;29.35;17.20;;;17.50;99.90;;;;;;5052938;28;20183;-59
2023/07/02 00:54:51;;;;;;;27.58;17.55;;;17.50;99.90;;;;;;5052870;28;20628;-59
2023/07/02 00:57:17;;;;;;;24.83;17.35;;;17.50;99.90;;;;;;5053236;28;20179;-59
2023/07/02 00:59:43;;;;;;;26.75;17.23;;;17.50;99.90;;;;;;5052722;28;20649;-59
2023/07/02 01:02:08;;;;;;;26.02;17.25;;;17.50;99.90;;;;;;5052767;28;20266;-59
2023/07/02 01:04:34;;;;;;;29.95;17.77;;;17.50;99.90;;;;;;5052771;28;20684;-59
2023/07/02 01:07:00;;;;;;;27.67;16.65;;;17.50;99.90;;;;;;5052714;28;20171;-59
2023/07/02 01:09:26;;;;;;;24.50;18.05;;;17.50;99.90;;;;;;5052519;28;20195;-59
2023/07/02 01:12:02;;;;;;;26.65;18.20;;;17.50;99.90;;;;;;5052799;28;20672;-59
2023/07/02 01:14:33;;;;;;;30.85;18.40;;;17.50;99.90;;;;;;5052641;28;20167;-59
2023/07/02 01:17:00;;;;;;;31.50;18.45;;;17.50;99.90;;;;;;5052555;28;20174;-59
2023/07/02 01:19:40;;;;;;;31.95;18.65;;;17.40;99.90;;;;;;5052671;28;20205;-60
2023/07/02 01:22:06;;;;;;;24.75;17.63;;;17.50;99.90;;;;;;5052412;28;20179;-60
2023/07/02 01:24:32;;;;;;;26.17;18.05;;;17.50;99.90;;;;;;5054417;28;20636;-60
2023/07/02 01:27:00;;;;;;;28.73;18.60;;;17.40;99.90;;;;;;5056285;28;20175;-59
2023/07/02 01:29:29;;;;;;;29.08;18.17;;;17.40;99.90;;;;;;5056179;28;20674;-59
2023/07/02 01:31:55;;;;;;;27.83;18.20;;;17.40;99.90;;;;;;5056084;28;20179;-60
2023/07/02 01:34:21;;;;;;;31.13;18.95;;;17.30;99.90;;;;;;5056007;28;20203;-60
2023/07/02 01:36:46;;;;;;;26.38;18.95;;;17.30;99.90;;;;;;5056225;28;20225;-59
2023/07/02 01:39:12;;;;;;;30.10;18.45;;;17.30;99.90;;;;;;5056058;28;20175;-59
2023/07/02 01:41:45;;;;;;;26.40;17.92;;;17.30;99.90;;;;;;5055867;28;20263;-60
2023/07/02 01:44:11;;;;;;;32.25;19.33;;;17.30;99.90;;;;;;5056013;28;20178;-59
2023/07/02 01:46:37;;;;;;;31.25;18.95;;;17.30;99.90;;;;;;5055894;28;20168;-59
2023/07/02 01:49:02;;;;;;;29.80;18.60;;;17.20;99.90;;;;;;5055669;28;20514;-60
2023/07/02 01:51:28;;;;;;;27.45;18.35;;;17.20;99.90;;;;;;5055795;28;20179;-60
2023/07/02 01:53:54;;;;;;;27.30;18.58;;;17.20;99.90;;;;;;5055931;28;20182;-60
2023/07/02 01:56:19;;;;;;;29.23;18.63;;;17.10;99.90;;;;;;5056050;28;20514;-60
2023/07/02 01:58:45;;;;;;;32.55;18.98;;;17.10;99.90;;;;;;5055753;28;20184;-60
2023/07/02 02:01:10;;;;;;;28.75;19.27;;;17.10;99.90;;;;;;5055663;28;20233;-59
2023/07/02 02:03:36;;;;;;;28.27;19.52;;;17.10;99.90;;;;;;5055482;28;20172;-60
2023/07/02 02:06:02;;;;;;;30.25;18.70;;;17.00;99.90;;;;;;5055442;28;20584;-60
2023/07/02 02:08:27;;;;;;;31.38;20.20;;;16.90;99.90;;;;;;5055532;28;20199;-59
2023/07/02 02:10:53;;;;;;;29.08;18.52;;;16.90;99.90;;;;;;5055318;28;20187;-60
2023/07/02 02:13:18;;;;;;;30.98;19.58;;;16.80;99.90;;;;;;5055450;28;20167;-60
2023/07/02 02:15:44;;;;;;;28.38;18.70;;;16.80;99.90;;;;;;5055293;28;20186;-59
2023/07/02 02:18:10;;;;;;;29.50;19.52;;;16.70;99.90;;;;;;5055330;28;20575;-59
2023/07/02 02:20:35;;;;;;;28.35;18.95;;;16.70;99.90;;;;;;5055449;28;20179;-59
2023/07/02 02:23:02;;;;;;;28.40;19.40;;;16.70;99.90;;;;;;5055320;28;20199;-60
2023/07/02 02:25:27;;;;;;;31.45;19.85;;;16.70;99.90;;;;;;5055472;28;20175;-60
2023/07/02 02:27:53;;;;;;;28.27;19.38;;;16.60;99.90;;;;;;5055168;28;20182;-60
2023/07/02 02:30:19;;;;;;;28.17;19.25;;;16.70;99.90;;;;;;5055193;28;20301;-59
2023/07/02 02:32:44;;;;;;;32.70;19.27;;;16.70;99.90;;;;;;5054970;28;20178;-60
2023/07/02 02:35:10;;;;;;;29.35;19.30;;;16.70;99.90;;;;;;5054911;28;20171;-59
2023/07/02 02:37:38;;;;;;;31.38;19.77;;;16.70;99.90;;;;;;5054872;28;20178;-59
2023/07/02 02:40:05;;;;;;;31.70;19.90;;;16.70;99.90;;;;;;5054793;28;20543;-60
2023/07/02 02:42:31;;;;;;;31.98;20.02;;;16.70;99.90;;;;;;5054830;28;20643;-59
2023/07/02 02:44:56;;;;;;;30.40;19.30;;;16.70;99.90;;;;;;5037208;28;20244;-59
2023/07/02 02:47:22;;;;;;;31.40;20.38;;;16.60;99.90;;;;;;5054732;28;20171;-60
2023/07/02 02:49:48;;;;;;;28.60;20.30;;;16.60;99.90;;;;;;5037108;28;20715;-60
2023/07/02 02:52:14;;;;;;;34.30;19.92;;;16.60;99.90;;;;;;5054792;28;20171;-60
2023/07/02 02:54:40;;;;;;;30.98;19.58;;;16.70;99.90;;;;;;5054731;28;20175;-59
2023/07/02 02:57:06;;;;;;;30.75;19.73;;;16.60;99.90;;;;;;5054640;28;20221;-60
2023/07/02 02:59:31;;;;;;;29.48;19.55;;;16.60;99.90;;;;;;5054628;28;20179;-59
2023/07/02 03:01:57;;;;;;;32.08;20.30;;;16.60;99.90;;;;;;5054405;28;20183;-59
2023/07/02 03:04:25;;;;;;;28.70;19.65;;;16.60;99.90;;;;;;5054623;28;20241;-60
2023/07/02 03:06:52;;;;;;;27.95;18.88;;;16.60;99.90;;;;;;5054478;28;20174;-59
2023/07/02 03:09:19;;;;;;;30.95;19.60;;;16.60;99.90;;;;;;5054371;28;20320;-59
2023/07/02 03:11:46;;;;;;;32.20;21.50;;;16.60;99.90;;;;;;5054303;28;20779;-60
2023/07/02 03:14:11;;;;;;;31.40;20.17;;;16.60;99.90;;;;;;5054258;28;20186;-59
2023/07/02 03:16:37;;;;;;;30.58;20.10;;;16.50;99.90;;;;;;5054196;28;20175;-60
2023/07/02 03:19:02;;;;;;;30.52;20.23;;;16.60;99.90;;;;;;5054041;28;20231;-59
2023/07/02 03:21:29;;;;;;;28.13;20.15;;;16.60;99.90;;;;;;5054286;28;20176;-60
2023/07/02 03:23:55;;;;;;;32.95;20.80;;;16.60;99.90;;;;;;5054104;28;20299;-60
2023/07/02 03:26:22;;;;;;;33.70;21.23;;;16.60;99.90;;;;;;5054063;28;20683;-59
2023/07/02 03:28:48;;;;;;;34.75;20.80;;;16.60;99.90;;;;;;5053986;28;20202;-59
2023/07/02 03:31:14;;;;;;;30.30;20.00;;;16.50;99.90;;;;;;5053811;28;20179;-60
2023/07/02 03:33:39;;;;;;;34.60;21.02;;;16.40;99.90;;;;;;5054058;28;20179;-60
2023/07/02 03:36:05;;;;;;;32.55;20.88;;;16.50;99.90;;;;;;5053964;28;20191;-60
2023/07/02 03:38:31;;;;;;;34.88;21.55;;;16.50;99.90;;;;;;5053808;28;20187;-60
2023/07/02 03:40:56;;;;;;;30.92;20.13;;;16.50;99.90;;;;;;5053796;28;20178;-60
2023/07/02 03:43:22;;;;;;;31.85;20.75;;;16.50;99.90;;;;;;5053819;28;20179;-61
2023/07/02 03:45:47;;;;;;;30.30;20.52;;;16.40;99.90;;;;;;5053613;28;20179;-60
2023/07/02 03:48:13;;;;;;;36.53;22.70;;;16.50;99.90;;;;;;5052895;28;20183;-59
2023/07/02 03:50:39;;;;;;;32.10;19.77;;;16.50;99.90;;;;;;5053800;28;20186;-59
2023/07/02 03:53:04;;;;;;;31.70;19.88;;;16.50;99.90;;;;;;5053758;28;20175;-60
2023/07/02 03:55:31;;;;;;;36.08;20.70;;;16.50;99.90;;;;;;5053716;28;20183;-59
2023/07/02 03:57:56;;;;;;;33.25;20.60;;;16.40;99.90;;;;;;5035730;28;20182;-60
2023/07/02 04:00:22;;;;;;;28.45;19.05;;;16.40;99.90;;;;;;5035831;28;20537;-59
2023/07/02 04:02:48;;;;;;;34.10;20.52;;;16.40;99.90;;;;;;5053496;28;20643;-59
2023/07/02 04:05:13;;;;;;;36.25;20.55;;;16.50;99.90;;;;;;5053484;28;20175;-59
2023/07/02 04:07:42;;;;;;;33.78;20.70;;;16.50;99.90;;;;;;5053328;28;20715;-59
2023/07/02 04:10:08;;;;;;;31.17;20.55;;;16.50;99.90;;;;;;5053214;28;20257;-59
2023/07/02 04:12:33;;;;;;;35.70;21.02;;;16.50;99.90;;;;;;5053337;28;20179;-59
2023/07/02 04:14:59;;;;;;;31.75;21.08;;;16.50;99.90;;;;;;5053357;28;20171;-59
2023/07/02 04:17:24;;;;;;;34.00;21.77;;;16.50;99.90;;;;;;5053131;28;20288;-59
2023/07/02 04:19:50;;;;;;;33.92;20.90;;;16.50;99.90;;;;;;5053414;28;20621;-59
2023/07/02 04:22:16;;;;;;;33.53;20.42;;;16.50;99.90;;;;;;5053198;28;20608;-59
2023/07/02 04:24:41;;;;;;;28.15;19.88;;;16.50;99.90;;;;;;5053154;28;20270;-59
2023/07/02 04:27:07;;;;;;;35.10;20.23;;;16.50;99.90;;;;;;5052966;28;20171;-59
2023/07/02 04:29:33;;;;;;;30.00;19.55;;;16.60;99.90;;;;;;5053008;28;20205;-59
2023/07/02 04:31:58;;;;;;;34.38;20.63;;;16.50;99.90;;;;;;5053006;28;20210;-59
2023/07/02 04:34:24;;;;;;;34.38;20.73;;;16.50;99.90;;;;;;5053260;28;20172;-60
2023/07/02 04:36:49;;;;;;;31.98;20.30;;;16.50;99.90;;;;;;5053202;28;20175;-60
2023/07/02 04:39:15;;;;;;;30.45;20.25;;;16.50;99.90;;;;;;5053038;28;20198;-62
2023/07/02 04:41:41;;;;;;;31.15;20.35;;;16.50;99.90;;;;;;5053046;28;20655;-60
2023/07/02 04:44:06;;;;;;;36.80;21.48;;;16.60;99.90;;;;;;5052881;28;20693;-60
2023/07/02 04:46:32;;;;;;;37.40;21.27;;;16.60;99.90;;;;;;5053102;28;20172;-60
2023/07/02 04:48:57;;;;;;;30.77;19.83;;;16.60;99.90;;;;;;5052933;28;20211;-59
2023/07/02 04:51:23;;;;;;;34.00;21.08;;;16.70;99.90;;;;;;5053046;28;20179;-59
2023/07/02 04:53:49;;;;;;;34.20;19.98;;;16.70;99.90;;;;;;5052911;28;20293;-60
2023/07/02 04:56:14;;;;;;;30.38;20.27;;;16.80;99.90;;;;;;5052837;28;20182;-59
2023/07/02 04:58:40;;;;;;;32.45;20.70;;;16.80;99.90;;;;;;5054734;28;20667;-60
2023/07/02 05:01:05;;;;;;;39.83;21.42;;;16.80;99.90;;;;;;5056968;28;20195;-59
2023/07/02 05:03:31;;;;;;;32.92;20.77;;;16.80;99.90;;;;;;5056864;28;20187;-60
2023/07/02 05:05:57;;;;;;;31.45;20.95;;;16.80;99.90;;;;;;5056803;28;20175;-59
2023/07/02 05:08:22;;;;;;;31.60;20.45;;;16.80;99.90;;;;;;5056693;28;20178;-59
2023/07/02 05:10:48;;;;;;;33.05;20.17;;;16.80;99.90;;;;;;5056568;28;20183;-59
2023/07/02 05:13:17;;;;;;;31.30;20.17;;;16.80;99.90;;;;;;5056502;28;20528;-59
2023/07/02 05:15:43;;;;;;;31.42;20.35;;;16.90;99.90;;;;;;5056812;28;20179;-59
2023/07/02 05:18:08;;;;;;;31.52;20.73;;;16.90;99.90;;;;;;5056503;28;20353;-59
2023/07/02 05:20:34;;;;;;;29.63;21.35;;;17.00;99.90;;;;;;5056518;28;20321;-59
2023/07/02 05:22:59;;;;;;;31.15;20.73;;;17.00;99.90;;;;;;5056417;28;20180;-60
2023/07/02 05:25:28;;;;;;;35.83;21.45;;;17.00;99.90;;;;;;5056180;28;20280;-60
2023/07/02 05:27:54;;;;;;;32.60;20.95;;;17.00;99.90;;;;;;5056191;28;20171;-59
2023/07/02 05:30:19;;;;;;;35.20;21.35;;;17.10;99.90;;;;;;5056137;28;20203;-59
2023/07/02 05:32:45;;;;;;;34.13;21.70;;;17.10;99.90;;;;;;5046087;28;20527;-59
2023/07/02 05:35:11;;;;;;;28.42;20.85;;;17.20;99.90;;;;;;5046276;28;20168;-60
2023/07/02 05:37:36;;;;;;;33.67;22.80;;;17.30;99.90;;;;;;5044035;28;20663;-59
2023/07/02 05:40:02;;;;;;;34.33;21.55;;;17.40;99.90;;;;;;5046158;28;20537;-59
2023/07/02 05:42:28;;;;;;;32.35;21.00;;;17.30;99.90;;;;;;5043641;28;20159;-59
2023/07/02 05:44:54;;;;;;;34.60;21.77;;;17.40;99.90;;;;;;5036130;28;20271;-59
2023/07/02 05:47:19;;;;;;;32.85;21.40;;;17.40;99.90;;;;;;5035659;28;20180;-59
2023/07/02 05:49:45;;;;;;;33.63;21.00;;;17.40;99.90;;;;;;5038835;28;20242;-59
2023/07/02 05:52:10;;;;;;;32.97;20.92;;;17.40;99.90;;;;;;5043307;28;20270;-59
2023/07/02 05:54:40;;;;;;;33.95;21.90;;;17.40;99.90;;;;;;5035710;28;20180;-59
2023/07/02 05:57:06;;;;;;;33.95;21.05;;;17.60;99.90;;;;;;5039476;28;20555;-59
2023/07/02 05:59:31;;;;;;;31.08;19.98;;;17.50;99.90;;;;;;5055479;28;20179;-59
2023/07/02 06:01:57;;;;;;;28.75;19.88;;;17.60;99.90;;;;;;5055460;28;20176;-59
2023/07/02 06:04:22;;;;;;;34.92;20.05;;;17.60;99.90;;;;;;5055684;28;20195;-59
2023/07/02 06:06:48;;;;;;;30.15;19.42;;;17.60;99.90;;;;;;5055307;28;20175;-58
2023/07/02 06:09:14;;;;;;;29.15;18.63;;;17.50;99.90;;;;;;5055044;28;20218;-58
2023/07/02 06:11:39;;;;;;;28.95;18.05;;;17.60;99.90;;;;;;5054924;28;20262;-58
2023/07/02 06:14:05;;;;;;;28.25;17.50;;;17.70;99.90;;;;;;5055139;28;20692;-59
2023/07/02 06:16:31;;;;;;;23.27;15.82;;;17.70;99.90;;;;;;5055293;28;20187;-58
2023/07/02 06:18:56;;;;;;;24.30;15.93;;;17.70;99.90;;;;;;5054823;28;20223;-58
2023/07/02 06:21:23;;;;;;;23.50;14.35;;;17.70;99.90;;;;;;5037304;28;20640;-58
2023/07/02 06:23:48;;;;;;;23.05;13.75;;;17.70;99.90;;;;;;5055044;28;20171;-58
2023/07/02 06:26:14;;;;;;;17.77;12.27;;;17.70;99.90;;;;;;5037081;28;20227;-58
2023/07/02 06:28:40;;;;;;;22.23;11.52;;;17.70;99.90;;;;;;5055007;28;20679;-59
2023/07/02 06:31:05;;;;;;;17.65;10.50;;;17.80;99.90;;;;;;5054945;28;20206;-59
2023/07/02 06:33:31;;;;;;;15.65;9.70;;;17.80;99.90;;;;;;5037051;28;20199;-59
2023/07/02 06:35:57;;;;;;;17.08;10.07;;;17.70;99.90;;;;;;5054814;28;20180;-59
2023/07/02 06:38:23;;;;;;;16.27;9.13;;;17.80;99.90;;;;;;5052750;28;20273;-59
2023/07/02 06:40:48;;;;;;;14.30;8.32;;;17.60;99.90;;;;;;5054001;28;20179;-59
2023/07/02 06:43:14;;;;;;;14.88;7.65;;;17.60;99.90;;;;;;5052972;28;20171;-59
2023/07/02 06:45:40;;;;;;;14.98;8.18;;;17.70;99.90;;;;;;5034940;28;20180;-59
2023/07/02 06:48:05;;;;;;;14.98;7.53;;;17.70;99.90;;;;;;5034620;28;20270;-59
2023/07/02 06:50:31;;;;;;;12.35;6.95;;;17.60;99.90;;;;;;5034449;28;20290;-59
2023/07/02 06:52:56;;;;;;;13.52;7.57;;;17.70;99.90;;;;;;5034128;28;20172;-60
2023/07/02 06:55:23;;;;;;;11.93;6.57;;;17.70;99.90;;;;;;5033990;28;20172;-60
2023/07/02 06:57:49;;;;;;;9.43;6.50;;;17.70;99.90;;;;;;5034619;28;20577;-59
2023/07/02 07:00:15;;;;;;;12.48;5.93;;;17.70;99.90;;;;;;5034927;28;20179;-61
2023/07/02 07:02:41;;;;;;;10.32;6.22;;;17.70;99.90;;;;;;5034423;28;20259;-61
2023/07/02 07:05:07;;;;;;;11.30;6.57;;;17.70;99.90;;;;;;5034490;28;20676;-61
2023/07/02 07:07:33;;;;;;;10.93;6.22;;;17.70;99.90;;;;;;5034411;28;20183;-60
2023/07/02 07:09:59;;;;;;;11.88;6.28;;;17.70;99.90;;;;;;5034363;28;20196;-60
2023/07/02 07:12:24;;;;;;;11.95;5.97;;;17.70;99.90;;;;;;5034233;28;20195;-61
2023/07/02 07:14:50;;;;;;;9.60;5.75;;;17.80;99.90;;;;;;5034479;28;20649;-60
2023/07/02 07:17:15;;;;;;;12.82;5.70;;;17.80;99.90;;;;;;5034316;28;20307;-60
2023/07/02 07:19:41;;;;;;;9.35;5.10;;;17.70;99.90;;;;;;5034226;28;20215;-60
2023/07/02 07:22:07;;;;;;;12.25;5.85;;;17.90;99.90;;;;;;5033229;28;20605;-61
2023/07/02 07:24:32;;;;;;;8.20;5.45;;;17.90;99.90;;;;;;5036163;28;20203;-61
2023/07/02 07:26:58;;;;;;;10.95;5.60;;;18.10;99.90;;;;;;5053832;28;20178;-61
2023/07/02 07:29:24;;;;;;;8.23;5.22;;;18.00;99.90;;;;;;5054003;28;20207;-61
2023/07/02 07:31:50;;;;;;;9.30;5.32;;;18.10;99.90;;;;;;5053905;28;20198;-61
2023/07/02 07:34:16;;;;;;;11.77;5.45;;;18.10;99.90;;;;;;5053947;28;20628;-63
2023/07/02 07:36:41;;;;;;;8.80;5.15;;;18.20;99.90;;;;;;5036093;28;20583;-62
2023/07/02 07:39:07;;;;;;;8.82;5.25;;;18.30;99.90;;;;;;5053796;28;20186;-64
2023/07/02 07:41:33;;;;;;;10.38;5.50;;;18.20;99.90;;;;;;5035723;28;20186;-66
2023/07/02 07:43:59;;;;;;;9.07;5.07;;;18.30;99.90;;;;;;5053836;28;20171;-67
2023/07/02 07:46:25;;;;;;;9.25;4.93;;;18.50;99.90;;;;;;5053948;28;20171;-66
2023/07/02 07:48:51;;;;;;;9.35;5.07;;;18.60;99.90;;;;;;5019197;28;20730;-66
2023/07/02 07:51:17;;;;;;;9.57;5.05;;;18.70;99.90;;;;;;5046885;28;20207;-60
2023/07/02 07:53:42;;;;;;;9.35;4.82;;;18.80;99.90;;;;;;5053375;28;20172;-60
2023/07/02 07:56:08;;;;;;;11.35;5.10;;;18.70;99.90;;;;;;5053048;28;20183;-60
2023/07/02 07:58:34;;;;;;;11.40;5.55;;;18.80;99.90;;;;;;5053013;28;20207;-60
2023/07/02 08:00:59;;;;;;;9.80;5.30;;;19.00;99.90;;;;;;5035495;28;20237;-60
2023/07/02 08:03:25;;;;;;;10.35;5.35;;;19.00;99.90;;;;;;5032305;28;20187;-60
2023/07/02 08:05:51;;;;;;;9.90;4.97;;;18.90;99.90;;;;;;5031121;28;20184;-60
2023/07/02 08:08:16;;;;;;;11.43;5.03;;;18.90;99.90;;;;;;5032397;28;20187;-60
2023/07/02 08:10:42;;;;;;;9.90;5.35;;;18.90;99.90;;;;;;5032708;28;20188;-60
2023/07/02 08:13:08;;;;;;;10.40;5.22;;;18.90;99.90;;;;;;5032750;28;20172;-60
2023/07/02 08:15:34;;;;;;;9.90;5.38;;;18.80;99.90;;;;;;5033531;28;20183;-60
2023/07/02 08:17:59;;;;;;;10.38;5.05;;;18.80;99.90;;;;;;5037875;28;20243;-60
2023/07/02 08:20:25;;;;;;;10.57;5.55;;;18.90;99.90;;;;;;5050976;28;20266;-60
2023/07/02 08:22:51;;;;;;;9.93;5.03;;;18.90;99.90;;;;;;5051226;28;20167;-60
2023/07/02 08:25:17;;;;;;;9.75;5.72;;;18.90;99.90;;;;;;5052042;28;20262;-60
2023/07/02 08:27:44;;;;;;;9.77;5.55;;;18.80;99.90;;;;;;5040544;28;20172;-60
2023/07/02 08:30:10;;;;;;;10.95;5.63;;;18.90;99.90;;;;;;5031787;28;20203;-60
2023/07/02 08:32:36;;;;;;;9.88;5.47;;;19.10;99.90;;;;;;5032628;28;20203;-60
2023/07/02 08:35:01;;;;;;;15.52;5.60;;;19.40;99.90;;;;;;5037757;28;20203;-60
2023/07/02 08:37:27;;;;;;;12.15;5.57;;;19.80;99.90;;;;;;5036655;28;20168;-60
2023/07/02 08:39:53;;;;;;;11.88;5.78;;;20.00;99.90;;;;;;5035174;28;20183;-60
2023/07/02 08:42:19;;;;;;;12.70;6.15;;;20.10;99.90;;;;;;5036977;28;20180;-60
2023/07/02 08:44:53;;;;;;;10.90;6.47;;;20.20;99.90;;;;;;5056564;28;20171;-60
2023/07/02 08:47:18;;;;;;;12.13;6.43;;;20.30;99.90;;;;;;5044747;28;20289;-60
2023/07/02 08:49:44;;;;;;;13.48;7.10;;;20.40;99.90;;;;;;5056607;28;20359;-60
2023/07/02 08:52:10;;;;;;;12.00;6.53;;;20.40;99.90;;;;;;5058578;28;20202;-60
2023/07/02 08:54:35;;;;;;;13.88;6.57;;;20.80;99.90;;;;;;5058173;28;20187;-60
2023/07/02 08:57:04;;;;;;;11.93;6.78;;;20.60;99.90;;;;;;5058494;28;20183;-60
2023/07/02 08:59:30;;;;;;;13.35;7.60;;;20.70;99.90;;;;;;5041152;28;20191;-60
2023/07/02 09:01:56;;;;;;;15.73;8.68;;;20.80;99.90;;;;;;5058259;28;20659;-61
2023/07/02 09:04:24;;;;;;;13.30;8.20;;;20.40;99.90;;;;;;5058439;28;20205;-60
2023/07/02 09:07:02;;;;;;;14.18;8.45;;;20.00;99.90;;;;;;5052881;28;20175;-60
2023/07/02 09:09:28;;;;;;;16.63;8.68;;;20.00;99.90;;;;;;5038557;28;20206;-60
2023/07/02 09:11:54;;;;;;;12.30;8.13;;;20.00;99.90;;;;;;5038419;28;20176;-61
2023/07/02 09:14:30;;;;;;;14.05;8.65;;;20.00;99.90;;;;;;5038487;28;20176;-60
2023/07/02 09:17:02;;;;;;;18.10;9.32;;;20.00;99.90;;;;;;5037928;28;20186;-60
2023/07/02 09:19:28;;;;;;;17.30;8.93;;;19.80;99.90;;;;;;5038305;28;20218;-60
2023/07/02 09:21:55;;;;;;;15.80;9.18;;;19.80;99.90;;;;;;5038494;28;20199;-59
2023/07/02 09:24:24;;;;;;;17.60;9.43;;;20.00;99.90;;;;;;5038460;28;20164;-59
2023/07/02 09:26:53;;;;;;;17.27;10.20;;;20.10;99.90;;;;;;5038070;28;20229;-60
2023/07/02 09:29:26;;;;;;;18.48;10.50;;;20.40;99.90;;;;;;5046157;28;20215;-59
2023/07/02 09:31:52;;;;;;;17.33;9.57;;;20.80;99.90;;;;;;5036145;28;20202;-60
2023/07/02 09:34:18;;;;;;;15.23;9.50;;;21.30;99.90;;;;;;5038216;28;20180;-60
2023/07/02 09:36:44;;;;;;;14.55;8.85;;;21.10;99.90;;;;;;5038391;28;20598;-59
2023/07/02 09:39:19;;;;;;;16.77;9.13;;;20.90;99.90;;;;;;5038147;28;20214;-60
2023/07/02 09:41:48;;;;;;;15.25;8.02;;;20.80;99.90;;;;;;5038218;28;20167;-60
2023/07/02 09:44:15;;;;;;;12.15;7.63;;;20.60;99.90;;;;;;5036853;28;20708;-60
2023/07/02 09:46:48;;;;;;;12.90;7.55;;;20.30;99.90;;;;;;5034568;28;20176;-60
2023/07/02 09:49:15;;;;;;;16.90;8.07;;;20.10;99.90;;;;;;5034905;28;20664;-60
2023/07/02 09:51:43;;;;;;;14.52;8.05;;;20.00;99.90;;;;;;5034965;28;20598;-60
2023/07/02 09:54:10;;;;;;;13.82;7.80;;;19.90;99.90;;;;;;5034961;28;20534;-60
2023/07/02 09:56:36;;;;;;;17.52;8.27;;;19.90;99.90;;;;;;5034690;28;20652;-60
2023/07/02 09:59:01;;;;;;;17.15;8.23;;;20.20;99.90;;;;;;5034651;28;20257;-60
2023/07/02 10:01:27;;;;;;;15.32;7.97;;;20.80;99.90;;;;;;5033177;28;20265;-60
2023/07/02 10:03:52;;;;;;;13.32;7.07;;;21.10;99.90;;;;;;5034652;28;20192;-60
2023/07/02 10:06:18;;;;;;;11.60;7.30;;;21.10;99.90;;;;;;5016749;28;20597;-60
2023/07/02 10:08:56;;;;;;;16.00;8.35;;;20.90;99.90;;;;;;5040591;28;20640;-60
2023/07/02 10:11:35;;;;;;;13.93;7.63;;;21.00;99.90;;;;;;5034908;28;20188;-60
2023/07/02 10:14:00;;;;;;;13.00;7.25;;;21.40;99.90;;;;;;5034863;28;20171;-60
2023/07/02 10:16:27;;;;;;;12.00;7.00;;;21.80;99.90;;;;;;5034705;28;20251;-60
2023/07/02 10:18:53;;;;;;;16.08;8.00;;;22.20;99.90;;;;;;5032449;28;20223;-60
2023/07/02 10:21:20;;;;;;;11.77;7.40;;;22.00;99.90;;;;;;5034446;28;20261;-60
2023/07/02 10:23:46;;;;;;;13.40;6.95;;;22.00;99.90;;;;;;5034331;28;20633;-60
2023/07/02 10:26:16;;;;;;;14.73;7.28;;;22.00;99.90;;;;;;5034125;28;20172;-60
2023/07/02 10:28:42;;;;;;;14.90;7.00;;;22.40;99.90;;;;;;5034176;28;20242;-60
2023/07/02 10:31:19;;;;;;;12.82;6.80;;;22.50;99.90;;;;;;5034272;28;20176;-61
2023/07/02 10:33:46;;;;;;;14.98;7.00;;;22.00;99.90;;;;;;5034285;28;20204;-60
2023/07/02 10:36:23;;;;;;;11.05;5.65;;;21.60;99.90;;;;;;5034279;28;20740;-60
2023/07/02 10:38:52;;;;;;;11.48;6.50;;;21.20;99.90;;;;;;5034227;28;20178;-60
2023/07/02 10:41:29;;;;;;;10.40;5.93;;;20.70;99.90;;;;;;5033493;28;20263;-60
2023/07/02 10:44:08;;;;;;;11.48;6.45;;;20.50;99.90;;;;;;5033938;28;20180;-60
2023/07/02 10:46:34;;;;;;;11.68;5.75;;;20.40;99.90;;;;;;5034200;28;20164;-60
2023/07/02 10:49:00;;;;;;;12.38;5.97;;;20.30;99.90;;;;;;5034076;28;20200;-60
2023/07/02 10:51:28;;;;;;;12.15;6.50;;;20.60;99.90;;;;;;5033909;28;20660;-60
2023/07/02 10:54:02;;;;;;;8.52;6.00;;;21.00;99.90;;;;;;5034167;28;20691;-60
2023/07/02 10:56:28;;;;;;;11.75;5.93;;;21.50;99.90;;;;;;5034073;28;20225;-60
2023/07/02 10:58:54;;;;;;;10.25;6.00;;;22.10;99.90;;;;;;5033611;28;20641;-60
2023/07/02 11:01:28;;;;;;;9.82;5.55;;;22.50;99.90;;;;;;5034077;28;20172;-61
2023/07/02 11:04:07;;;;;;;10.30;5.85;;;22.70;99.90;;;;;;5034038;28;20533;-62
2023/07/02 11:06:33;;;;;;;9.20;5.60;;;22.90;99.90;;;;;;5034217;28;20172;-62
2023/07/02 11:09:00;;;;;;;9.30;5.53;;;23.10;99.90;;;;;;5033862;28;20683;-61
2023/07/02 11:11:27;;;;;;;12.30;5.65;;;22.80;99.90;;;;;;5033738;28;20184;-61
2023/07/02 11:13:53;;;;;;;12.18;5.95;;;22.20;99.90;;;;;;5033741;28;20172;-61
2023/07/02 11:16:26;;;;;;;11.93;5.18;;;22.00;99.90;;;;;;5033541;28;20230;-60
2023/07/02 11:19:10;;;;;;;11.38;6.00;;;22.30;99.90;;;;;;5033443;28;20254;-61
2023/07/02 11:21:36;;;;;;;11.13;5.75;;;22.40;99.90;;;;;;5033609;28;20176;-60
2023/07/02 11:24:08;;;;;;;8.65;5.28;;;22.40;99.80;;;;;;5033540;28;20164;-61
2023/07/02 11:26:40;;;;;;;8.80;5.10;;;22.30;99.90;;;;;;5033443;28;20608;-61
2023/07/02 11:29:12;;;;;;;13.25;5.43;;;22.10;99.90;;;;;;5034098;28;20211;-60
2023/07/02 11:31:38;;;;;;;9.65;5.70;;;21.90;99.90;;;;;;5033586;28;20180;-60
2023/07/02 11:34:17;;;;;;;10.35;6.03;;;21.70;99.90;;;;;;5033607;28;20609;-60
2023/07/02 11:36:43;;;;;;;9.13;5.00;;;21.50;99.90;;;;;;5033291;28;20648;-61
2023/07/02 11:39:09;;;;;;;11.73;5.63;;;21.50;99.90;;;;;;5015652;28;20194;-61
2023/07/02 11:41:38;;;;;;;13.05;5.90;;;21.60;99.90;;;;;;5033333;28;20259;-60
2023/07/02 11:44:05;;;;;;;11.07;5.45;;;21.40;99.90;;;;;;5033486;28;20679;-61
2023/07/02 11:46:30;;;;;;;11.50;6.00;;;21.40;99.90;;;;;;5033200;28;20180;-61
2023/07/02 11:48:56;;;;;;;10.32;5.22;;;21.50;99.90;;;;;;5033349;28;20744;-61
2023/07/02 11:51:22;;;;;;;9.38;5.65;;;21.70;99.90;;;;;;5033116;28;20192;-61
2023/07/02 11:53:47;;;;;;;11.07;5.45;;;21.70;99.90;;;;;;5032993;28;20180;-59
2023/07/02 11:56:13;;;;;;;10.20;5.38;;;22.00;99.90;;;;;;5033182;28;20195;-59
2023/07/02 11:58:42;;;;;;;11.90;5.65;;;22.00;99.90;;;;;;5032890;28;20187;-59
2023/07/02 12:01:08;;;;;;;11.20;5.55;;;21.90;99.90;;;;;;5033120;28;20206;-61
2023/07/02 12:03:34;;;;;;;9.75;5.50;;;21.70;99.90;;;;;;5032884;28;20647;-61
2023/07/02 12:05:59;;;;;;;11.35;5.88;;;21.60;99.90;;;;;;5033017;28;20176;-61
2023/07/02 12:08:25;;;;;;;10.52;5.20;;;21.50;99.90;;;;;;5032057;28;20184;-61
2023/07/02 12:10:51;;;;;;;9.93;5.35;;;21.80;99.90;;;;;;5033015;28;20260;-61
2023/07/02 12:13:17;;;;;;;12.82;5.38;;;21.90;99.90;;;;;;5032938;28;20577;-60
2023/07/02 12:15:43;;;;;;;11.57;5.80;;;21.90;99.90;;;;;;5032822;28;20180;-59
2023/07/02 12:18:09;;;;;;;10.05;5.30;;;21.60;99.90;;;;;;5032749;28;20589;-59
2023/07/02 12:20:35;;;;;;;11.95;5.25;;;21.60;99.90;;;;;;5032763;28;20183;-60
2023/07/02 12:23:01;;;;;;;10.98;5.53;;;21.40;99.90;;;;;;5032550;28;20187;-59
2023/07/02 12:25:27;;;;;;;10.20;5.60;;;21.40;99.90;;;;;;5032597;28;20263;-60
2023/07/02 12:27:53;;;;;;;11.00;5.20;;;21.50;99.90;;;;;;5032698;28;20529;-60
2023/07/02 12:30:19;;;;;;;10.95;5.65;;;21.80;99.90;;;;;;5032470;28;20223;-60